sensor_id;sensor_type;location;lat;lon;timestamp;P1;durP1;ratioP1;P2;durP2;ratioP2
53650;SDS011;39552;45.776;15.892;2023-02-03T00:02:13;3.00;;;2.70;;
53650;SDS011;39552;45.776;15.892;2023-02-03T00:04:40;2.88;;;2.53;;
53650;SDS011;39552;45.776;15.892;2023-02-03T00:07:08;2.63;;;2.42;;
53650;SDS011;39552;45.776;15.892;2023-02-03T00:09:35;3.42;;;2.85;;
53650;SDS011;39552;45.776;15.892;2023-02-03T00:12:03;2.67;;;2.45;;
53650;SDS011;39552;45.776;15.892;2023-02-03T00:14:32;3.22;;;2.92;;
53650;SDS011;39552;45.776;15.892;2023-02-03T00:16:58;3.33;;;3.03;;
53650;SDS011;39552;45.776;15.892;2023-02-03T00:19:25;5.28;;;4.30;;
53650;SDS011;39552;45.776;15.892;2023-02-03T00:21:52;5.55;;;3.95;;
53650;SDS011;39552;45.776;15.892;2023-02-03T00:24:19;5.80;;;4.72;;
53650;SDS011;39552;45.776;15.892;2023-02-03T00:26:45;5.20;;;4.45;;
53650;SDS011;39552;45.776;15.892;2023-02-03T00:29:12;6.05;;;4.78;;
53650;SDS011;39552;45.776;15.892;2023-02-03T00:31:40;9.25;;;6.57;;
53650;SDS011;39552;45.776;15.892;2023-02-03T00:34:07;9.55;;;6.90;;
53650;SDS011;39552;45.776;15.892;2023-02-03T00:36:34;7.22;;;5.53;;
53650;SDS011;39552;45.776;15.892;2023-02-03T00:39:01;4.63;;;4.15;;
53650;SDS011;39552;45.776;15.892;2023-02-03T00:41:28;4.28;;;3.75;;
53650;SDS011;39552;45.776;15.892;2023-02-03T00:43:56;4.63;;;4.00;;
53650;SDS011;39552;45.776;15.892;2023-02-03T00:46:23;6.70;;;3.67;;
53650;SDS011;39552;45.776;15.892;2023-02-03T00:48:51;4.07;;;3.65;;
53650;SDS011;39552;45.776;15.892;2023-02-03T00:51:18;4.07;;;3.47;;
53650;SDS011;39552;45.776;15.892;2023-02-03T00:53:46;3.38;;;2.95;;
53650;SDS011;39552;45.776;15.892;2023-02-03T00:56:12;4.28;;;3.80;;
53650;SDS011;39552;45.776;15.892;2023-02-03T00:58:41;4.15;;;3.75;;
53650;SDS011;39552;45.776;15.892;2023-02-03T01:01:07;3.92;;;3.47;;
53650;SDS011;39552;45.776;15.892;2023-02-03T01:03:35;5.50;;;3.92;;
53650;SDS011;39552;45.776;15.892;2023-02-03T01:06:10;4.65;;;3.45;;
53650;SDS011;39552;45.776;15.892;2023-02-03T01:08:39;5.13;;;3.72;;
53650;SDS011;39552;45.776;15.892;2023-02-03T01:11:06;4.45;;;3.78;;
53650;SDS011;39552;45.776;15.892;2023-02-03T01:13:33;5.30;;;4.10;;
53650;SDS011;39552;45.776;15.892;2023-02-03T01:16:00;4.65;;;4.15;;
53650;SDS011;39552;45.776;15.892;2023-02-03T01:18:27;4.63;;;4.22;;
53650;SDS011;39552;45.776;15.892;2023-02-03T01:20:54;6.05;;;4.57;;
53650;SDS011;39552;45.776;15.892;2023-02-03T01:23:22;5.88;;;4.43;;
53650;SDS011;39552;45.776;15.892;2023-02-03T01:25:49;8.70;;;4.78;;
53650;SDS011;39552;45.776;15.892;2023-02-03T01:28:15;6.70;;;5.13;;
53650;SDS011;39552;45.776;15.892;2023-02-03T01:30:42;10.20;;;5.38;;
53650;SDS011;39552;45.776;15.892;2023-02-03T01:33:09;6.05;;;5.00;;
53650;SDS011;39552;45.776;15.892;2023-02-03T01:35:36;5.70;;;5.07;;
53650;SDS011;39552;45.776;15.892;2023-02-03T01:38:03;6.28;;;4.60;;
53650;SDS011;39552;45.776;15.892;2023-02-03T01:40:31;5.25;;;4.05;;
53650;SDS011;39552;45.776;15.892;2023-02-03T01:42:57;5.28;;;4.53;;
53650;SDS011;39552;45.776;15.892;2023-02-03T01:45:24;5.05;;;4.55;;
53650;SDS011;39552;45.776;15.892;2023-02-03T01:47:51;6.07;;;5.30;;
53650;SDS011;39552;45.776;15.892;2023-02-03T01:50:21;6.97;;;5.72;;
53650;SDS011;39552;45.776;15.892;2023-02-03T01:52:52;5.68;;;4.82;;
53650;SDS011;39552;45.776;15.892;2023-02-03T01:55:24;7.55;;;4.97;;
53650;SDS011;39552;45.776;15.892;2023-02-03T01:57:56;6.75;;;4.70;;
53650;SDS011;39552;45.776;15.892;2023-02-03T02:00:26;5.00;;;4.53;;
53650;SDS011;39552;45.776;15.892;2023-02-03T02:02:54;7.47;;;4.93;;
53650;SDS011;39552;45.776;15.892;2023-02-03T02:05:24;5.72;;;4.68;;
53650;SDS011;39552;45.776;15.892;2023-02-03T02:07:57;5.75;;;4.65;;
53650;SDS011;39552;45.776;15.892;2023-02-03T02:10:26;5.70;;;5.03;;
53650;SDS011;39552;45.776;15.892;2023-02-03T02:12:57;8.60;;;4.80;;
53650;SDS011;39552;45.776;15.892;2023-02-03T02:15:30;6.45;;;5.30;;
53650;SDS011;39552;45.776;15.892;2023-02-03T02:18:11;6.93;;;5.38;;
53650;SDS011;39552;45.776;15.892;2023-02-03T02:26:51;6.03;;;5.40;;
53650;SDS011;39552;45.776;15.892;2023-02-03T02:32:43;7.05;;;5.07;;
53650;SDS011;39552;45.776;15.892;2023-02-03T02:35:18;7.68;;;5.30;;
53650;SDS011;39552;45.776;15.892;2023-02-03T02:37:52;5.65;;;4.80;;
53650;SDS011;39552;45.776;15.892;2023-02-03T02:40:26;7.25;;;5.03;;
53650;SDS011;39552;45.776;15.892;2023-02-03T02:43:00;6.82;;;5.35;;
53650;SDS011;39552;45.776;15.892;2023-02-03T02:45:36;7.57;;;5.43;;
53650;SDS011;39552;45.776;15.892;2023-02-03T02:48:25;5.90;;;4.75;;
53650;SDS011;39552;45.776;15.892;2023-02-03T02:50:55;7.50;;;5.22;;
53650;SDS011;39552;45.776;15.892;2023-02-03T02:53:24;5.43;;;4.90;;
53650;SDS011;39552;45.776;15.892;2023-02-03T02:55:54;5.68;;;4.88;;
53650;SDS011;39552;45.776;15.892;2023-02-03T02:58:22;8.43;;;5.57;;
53650;SDS011;39552;45.776;15.892;2023-02-03T03:00:52;9.25;;;5.80;;
53650;SDS011;39552;45.776;15.892;2023-02-03T03:03:20;5.72;;;5.20;;
53650;SDS011;39552;45.776;15.892;2023-02-03T03:05:51;6.90;;;5.37;;
53650;SDS011;39552;45.776;15.892;2023-02-03T03:08:21;6.80;;;4.88;;
53650;SDS011;39552;45.776;15.892;2023-02-03T03:10:56;8.48;;;5.70;;
53650;SDS011;39552;45.776;15.892;2023-02-03T03:13:26;7.10;;;5.20;;
53650;SDS011;39552;45.776;15.892;2023-02-03T03:15:57;7.18;;;5.90;;
53650;SDS011;39552;45.776;15.892;2023-02-03T03:18:28;8.23;;;5.53;;
53650;SDS011;39552;45.776;15.892;2023-02-03T03:21:00;9.45;;;5.50;;
53650;SDS011;39552;45.776;15.892;2023-02-03T03:23:31;5.90;;;5.30;;
53650;SDS011;39552;45.776;15.892;2023-02-03T03:26:03;7.80;;;5.60;;
53650;SDS011;39552;45.776;15.892;2023-02-03T03:28:37;6.28;;;4.95;;
53650;SDS011;39552;45.776;15.892;2023-02-03T03:31:12;9.05;;;5.50;;
53650;SDS011;39552;45.776;15.892;2023-02-03T03:33:39;7.40;;;5.93;;
53650;SDS011;39552;45.776;15.892;2023-02-03T03:36:10;5.75;;;5.13;;
53650;SDS011;39552;45.776;15.892;2023-02-03T03:38:45;7.40;;;5.80;;
53650;SDS011;39552;45.776;15.892;2023-02-03T03:41:19;8.30;;;6.22;;
53650;SDS011;39552;45.776;15.892;2023-02-03T03:43:54;6.82;;;5.78;;
53650;SDS011;39552;45.776;15.892;2023-02-03T03:46:24;6.28;;;5.50;;
53650;SDS011;39552;45.776;15.892;2023-02-03T03:48:54;14.93;;;6.53;;
53650;SDS011;39552;45.776;15.892;2023-02-03T03:51:39;8.00;;;5.40;;
53650;SDS011;39552;45.776;15.892;2023-02-03T03:54:16;6.53;;;5.53;;
53650;SDS011;39552;45.776;15.892;2023-02-03T03:56:48;6.30;;;5.63;;
53650;SDS011;39552;45.776;15.892;2023-02-03T03:59:19;5.97;;;4.97;;
53650;SDS011;39552;45.776;15.892;2023-02-03T04:01:49;6.22;;;5.60;;
53650;SDS011;39552;45.776;15.892;2023-02-03T04:04:17;8.85;;;5.65;;
53650;SDS011;39552;45.776;15.892;2023-02-03T04:06:47;9.80;;;6.45;;
53650;SDS011;39552;45.776;15.892;2023-02-03T04:09:14;7.82;;;6.03;;
53650;SDS011;39552;45.776;15.892;2023-02-03T04:11:41;6.90;;;6.15;;
53650;SDS011;39552;45.776;15.892;2023-02-03T04:14:07;7.95;;;6.72;;
53650;SDS011;39552;45.776;15.892;2023-02-03T04:16:34;7.53;;;6.18;;
53650;SDS011;39552;45.776;15.892;2023-02-03T04:19:01;9.27;;;7.05;;
53650;SDS011;39552;45.776;15.892;2023-02-03T04:21:28;9.68;;;7.30;;
53650;SDS011;39552;45.776;15.892;2023-02-03T04:23:56;10.52;;;6.95;;
53650;SDS011;39552;45.776;15.892;2023-02-03T04:26:22;11.32;;;7.60;;
53650;SDS011;39552;45.776;15.892;2023-02-03T04:29:03;9.25;;;7.60;;
53650;SDS011;39552;45.776;15.892;2023-02-03T04:31:30;11.50;;;8.55;;
53650;SDS011;39552;45.776;15.892;2023-02-03T04:33:57;9.57;;;7.25;;
53650;SDS011;39552;45.776;15.892;2023-02-03T04:36:24;9.57;;;7.70;;
53650;SDS011;39552;45.776;15.892;2023-02-03T04:38:51;12.85;;;8.18;;
53650;SDS011;39552;45.776;15.892;2023-02-03T04:41:19;11.15;;;7.82;;
53650;SDS011;39552;45.776;15.892;2023-02-03T04:43:46;12.10;;;7.68;;
53650;SDS011;39552;45.776;15.892;2023-02-03T04:46:12;9.68;;;8.15;;
53650;SDS011;39552;45.776;15.892;2023-02-03T04:48:39;10.80;;;7.55;;
53650;SDS011;39552;45.776;15.892;2023-02-03T04:51:07;11.50;;;7.63;;
53650;SDS011;39552;45.776;15.892;2023-02-03T04:53:34;10.23;;;7.63;;
53650;SDS011;39552;45.776;15.892;2023-02-03T04:56:01;10.40;;;7.95;;
53650;SDS011;39552;45.776;15.892;2023-02-03T04:58:34;14.82;;;6.75;;
53650;SDS011;39552;45.776;15.892;2023-02-03T05:01:05;13.30;;;7.43;;
53650;SDS011;39552;45.776;15.892;2023-02-03T05:03:33;8.18;;;6.53;;
53650;SDS011;39552;45.776;15.892;2023-02-03T05:06:00;8.27;;;6.50;;
53650;SDS011;39552;45.776;15.892;2023-02-03T05:08:27;8.48;;;6.38;;
53650;SDS011;39552;45.776;15.892;2023-02-03T05:10:54;7.30;;;6.50;;
53650;SDS011;39552;45.776;15.892;2023-02-03T05:13:20;9.40;;;6.80;;
53650;SDS011;39552;45.776;15.892;2023-02-03T05:15:49;8.48;;;6.35;;
53650;SDS011;39552;45.776;15.892;2023-02-03T05:18:15;8.60;;;6.30;;
53650;SDS011;39552;45.776;15.892;2023-02-03T05:20:42;7.15;;;6.10;;
53650;SDS011;39552;45.776;15.892;2023-02-03T05:23:09;8.18;;;6.43;;
53650;SDS011;39552;45.776;15.892;2023-02-03T05:25:35;7.68;;;6.32;;
53650;SDS011;39552;45.776;15.892;2023-02-03T05:28:02;7.88;;;6.25;;
53650;SDS011;39552;45.776;15.892;2023-02-03T05:30:29;8.15;;;6.32;;
53650;SDS011;39552;45.776;15.892;2023-02-03T05:32:58;8.80;;;7.07;;
53650;SDS011;39552;45.776;15.892;2023-02-03T05:35:24;9.05;;;7.15;;
53650;SDS011;39552;45.776;15.892;2023-02-03T05:37:51;10.38;;;8.48;;
53650;SDS011;39552;45.776;15.892;2023-02-03T05:40:32;13.85;;;8.50;;
53650;SDS011;39552;45.776;15.892;2023-02-03T05:42:58;12.05;;;9.75;;
53650;SDS011;39552;45.776;15.892;2023-02-03T05:45:25;14.77;;;10.93;;
53650;SDS011;39552;45.776;15.892;2023-02-03T05:47:52;16.17;;;10.57;;
53650;SDS011;39552;45.776;15.892;2023-02-03T05:50:20;12.52;;;9.95;;
53650;SDS011;39552;45.776;15.892;2023-02-03T05:52:47;15.70;;;11.45;;
53650;SDS011;39552;45.776;15.892;2023-02-03T05:55:14;14.25;;;10.30;;
53650;SDS011;39552;45.776;15.892;2023-02-03T05:57:40;18.38;;;12.00;;
53650;SDS011;39552;45.776;15.892;2023-02-03T06:00:08;18.45;;;12.93;;
53650;SDS011;39552;45.776;15.892;2023-02-03T06:02:36;19.90;;;13.48;;
53650;SDS011;39552;45.776;15.892;2023-02-03T06:05:03;19.17;;;12.80;;
53650;SDS011;39552;45.776;15.892;2023-02-03T06:07:32;19.75;;;13.38;;
53650;SDS011;39552;45.776;15.892;2023-02-03T06:09:59;17.40;;;11.32;;
53650;SDS011;39552;45.776;15.892;2023-02-03T06:12:26;16.42;;;12.68;;
53650;SDS011;39552;45.776;15.892;2023-02-03T06:14:54;19.35;;;12.95;;
53650;SDS011;39552;45.776;15.892;2023-02-03T06:17:24;17.02;;;12.38;;
53650;SDS011;39552;45.776;15.892;2023-02-03T06:19:53;19.50;;;13.13;;
53650;SDS011;39552;45.776;15.892;2023-02-03T06:22:20;16.83;;;12.38;;
53650;SDS011;39552;45.776;15.892;2023-02-03T06:24:48;20.15;;;12.70;;
53650;SDS011;39552;45.776;15.892;2023-02-03T06:27:15;18.95;;;12.90;;
53650;SDS011;39552;45.776;15.892;2023-02-03T06:29:42;17.95;;;12.63;;
53650;SDS011;39552;45.776;15.892;2023-02-03T06:32:08;14.93;;;11.88;;
53650;SDS011;39552;45.776;15.892;2023-02-03T06:34:35;16.63;;;12.70;;
53650;SDS011;39552;45.776;15.892;2023-02-03T06:37:02;18.98;;;12.02;;
53650;SDS011;39552;45.776;15.892;2023-02-03T06:39:29;19.30;;;13.23;;
53650;SDS011;39552;45.776;15.892;2023-02-03T06:41:57;18.08;;;12.80;;
53650;SDS011;39552;45.776;15.892;2023-02-03T06:44:24;21.67;;;14.43;;
53650;SDS011;39552;45.776;15.892;2023-02-03T06:46:50;18.50;;;13.13;;
53650;SDS011;39552;45.776;15.892;2023-02-03T06:49:17;19.92;;;12.82;;
53650;SDS011;39552;45.776;15.892;2023-02-03T06:51:44;16.45;;;11.75;;
53650;SDS011;39552;45.776;15.892;2023-02-03T06:54:11;15.82;;;11.85;;
53650;SDS011;39552;45.776;15.892;2023-02-03T06:56:38;18.60;;;11.85;;
53650;SDS011;39552;45.776;15.892;2023-02-03T06:59:07;14.95;;;11.50;;
53650;SDS011;39552;45.776;15.892;2023-02-03T07:01:34;14.80;;;10.93;;
53650;SDS011;39552;45.776;15.892;2023-02-03T07:04:01;15.13;;;10.45;;
53650;SDS011;39552;45.776;15.892;2023-02-03T07:06:28;12.27;;;9.50;;
53650;SDS011;39552;45.776;15.892;2023-02-03T07:08:56;14.73;;;10.32;;
53650;SDS011;39552;45.776;15.892;2023-02-03T07:11:25;15.07;;;11.57;;
53650;SDS011;39552;45.776;15.892;2023-02-03T07:13:52;16.92;;;12.57;;
53650;SDS011;39552;45.776;15.892;2023-02-03T07:16:21;14.15;;;10.55;;
53650;SDS011;39552;45.776;15.892;2023-02-03T07:18:48;16.67;;;11.07;;
53650;SDS011;39552;45.776;15.892;2023-02-03T07:21:15;16.00;;;11.75;;
53650;SDS011;39552;45.776;15.892;2023-02-03T07:23:42;14.65;;;10.57;;
53650;SDS011;39552;45.776;15.892;2023-02-03T07:26:09;13.50;;;9.80;;
53650;SDS011;39552;45.776;15.892;2023-02-03T07:28:36;12.45;;;10.00;;
53650;SDS011;39552;45.776;15.892;2023-02-03T07:31:03;11.98;;;9.20;;
53650;SDS011;39552;45.776;15.892;2023-02-03T07:33:31;12.68;;;9.77;;
53650;SDS011;39552;45.776;15.892;2023-02-03T07:35:58;11.93;;;9.35;;
53650;SDS011;39552;45.776;15.892;2023-02-03T07:38:26;12.73;;;9.85;;
53650;SDS011;39552;45.776;15.892;2023-02-03T07:40:53;14.07;;;10.32;;
53650;SDS011;39552;45.776;15.892;2023-02-03T07:43:21;14.18;;;10.73;;
53650;SDS011;39552;45.776;15.892;2023-02-03T07:45:48;14.93;;;10.70;;
53650;SDS011;39552;45.776;15.892;2023-02-03T07:48:15;14.65;;;10.50;;
53650;SDS011;39552;45.776;15.892;2023-02-03T07:50:43;12.27;;;9.73;;
53650;SDS011;39552;45.776;15.892;2023-02-03T07:53:10;12.75;;;10.23;;
53650;SDS011;39552;45.776;15.892;2023-02-03T07:55:37;16.35;;;10.40;;
53650;SDS011;39552;45.776;15.892;2023-02-03T07:58:05;15.05;;;10.77;;
53650;SDS011;39552;45.776;15.892;2023-02-03T08:00:43;14.35;;;10.50;;
53650;SDS011;39552;45.776;15.892;2023-02-03T08:03:10;13.63;;;10.25;;
53650;SDS011;39552;45.776;15.892;2023-02-03T08:05:37;12.30;;;10.15;;
53650;SDS011;39552;45.776;15.892;2023-02-03T08:08:05;15.02;;;11.20;;
53650;SDS011;39552;45.776;15.892;2023-02-03T08:10:32;12.93;;;10.80;;
53650;SDS011;39552;45.776;15.892;2023-02-03T08:12:58;15.60;;;11.15;;
53650;SDS011;39552;45.776;15.892;2023-02-03T08:15:25;17.23;;;11.20;;
53650;SDS011;39552;45.776;15.892;2023-02-03T08:17:52;19.67;;;11.50;;
53650;SDS011;39552;45.776;15.892;2023-02-03T08:20:19;16.45;;;11.60;;
53650;SDS011;39552;45.776;15.892;2023-02-03T08:22:46;15.60;;;10.90;;
53650;SDS011;39552;45.776;15.892;2023-02-03T08:25:14;16.75;;;11.88;;
53650;SDS011;39552;45.776;15.892;2023-02-03T08:27:41;14.55;;;11.43;;
53650;SDS011;39552;45.776;15.892;2023-02-03T08:30:09;16.30;;;12.75;;
53650;SDS011;39552;45.776;15.892;2023-02-03T08:35:05;19.90;;;14.00;;
53650;SDS011;39552;45.776;15.892;2023-02-03T08:37:32;24.10;;;15.52;;
53650;SDS011;39552;45.776;15.892;2023-02-03T08:39:59;20.67;;;12.85;;
53650;SDS011;39552;45.776;15.892;2023-02-03T08:42:27;17.25;;;11.25;;
53650;SDS011;39552;45.776;15.892;2023-02-03T08:44:54;17.98;;;12.38;;
53650;SDS011;39552;45.776;15.892;2023-02-03T08:47:21;18.38;;;13.68;;
53650;SDS011;39552;45.776;15.892;2023-02-03T08:49:48;13.95;;;10.23;;
53650;SDS011;39552;45.776;15.892;2023-02-03T08:52:15;13.88;;;9.13;;
53650;SDS011;39552;45.776;15.892;2023-02-03T08:54:44;12.38;;;9.25;;
53650;SDS011;39552;45.776;15.892;2023-02-03T08:57:11;11.38;;;8.85;;
53650;SDS011;39552;45.776;15.892;2023-02-03T08:59:40;11.75;;;8.27;;
53650;SDS011;39552;45.776;15.892;2023-02-03T09:02:10;10.13;;;8.32;;
53650;SDS011;39552;45.776;15.892;2023-02-03T09:04:40;13.60;;;7.78;;
53650;SDS011;39552;45.776;15.892;2023-02-03T09:07:07;10.95;;;7.80;;
53650;SDS011;39552;45.776;15.892;2023-02-03T09:09:34;12.02;;;9.32;;
53650;SDS011;39552;45.776;15.892;2023-02-03T09:12:01;18.92;;;9.73;;
53650;SDS011;39552;45.776;15.892;2023-02-03T09:14:28;9.93;;;7.00;;
53650;SDS011;39552;45.776;15.892;2023-02-03T09:16:56;14.60;;;6.50;;
53650;SDS011;39552;45.776;15.892;2023-02-03T09:19:23;8.43;;;7.03;;
53650;SDS011;39552;45.776;15.892;2023-02-03T09:21:50;15.45;;;6.60;;
53650;SDS011;39552;45.776;15.892;2023-02-03T09:24:17;9.32;;;7.00;;
53650;SDS011;39552;45.776;15.892;2023-02-03T09:26:44;8.95;;;6.00;;
53650;SDS011;39552;45.776;15.892;2023-02-03T09:29:11;7.95;;;5.43;;
53650;SDS011;39552;45.776;15.892;2023-02-03T09:31:37;7.57;;;5.22;;
53650;SDS011;39552;45.776;15.892;2023-02-03T09:34:06;5.60;;;4.50;;
53650;SDS011;39552;45.776;15.892;2023-02-03T09:36:33;7.83;;;5.10;;
53650;SDS011;39552;45.776;15.892;2023-02-03T09:39:00;4.65;;;4.20;;
53650;SDS011;39552;45.776;15.892;2023-02-03T09:41:31;8.48;;;4.28;;
53650;SDS011;39552;45.776;15.892;2023-02-03T09:44:10;4.72;;;4.07;;
53650;SDS011;39552;45.776;15.892;2023-02-03T09:46:43;11.85;;;4.18;;
53650;SDS011;39552;45.776;15.892;2023-02-03T09:49:15;6.43;;;3.78;;
53650;SDS011;39552;45.776;15.892;2023-02-03T09:51:54;5.22;;;3.70;;
53650;SDS011;39552;45.776;15.892;2023-02-03T09:54:26;4.75;;;4.10;;
53650;SDS011;39552;45.776;15.892;2023-02-03T09:57:03;5.95;;;4.28;;
53650;SDS011;39552;45.776;15.892;2023-02-03T09:59:36;4.40;;;4.00;;
53650;SDS011;39552;45.776;15.892;2023-02-03T10:02:06;4.88;;;4.38;;
53650;SDS011;39552;45.776;15.892;2023-02-03T10:04:50;8.30;;;4.18;;
53650;SDS011;39552;45.776;15.892;2023-02-03T10:07:25;5.28;;;4.78;;
53650;SDS011;39552;45.776;15.892;2023-02-03T10:09:58;5.68;;;4.78;;
53650;SDS011;39552;45.776;15.892;2023-02-03T10:12:39;6.50;;;4.82;;
53650;SDS011;39552;45.776;15.892;2023-02-03T10:15:22;5.78;;;5.22;;
53650;SDS011;39552;45.776;15.892;2023-02-03T10:18:16;6.35;;;5.22;;
53650;SDS011;39552;45.776;15.892;2023-02-03T10:20:48;5.80;;;5.03;;
53650;SDS011;39552;45.776;15.892;2023-02-03T10:23:21;7.88;;;5.40;;
53650;SDS011;39552;45.776;15.892;2023-02-03T10:25:54;6.03;;;4.97;;
53650;SDS011;39552;45.776;15.892;2023-02-03T10:28:23;5.38;;;4.88;;
53650;SDS011;39552;45.776;15.892;2023-02-03T10:30:54;7.25;;;4.90;;
53650;SDS011;39552;45.776;15.892;2023-02-03T10:33:24;8.98;;;4.97;;
53650;SDS011;39552;45.776;15.892;2023-02-03T10:38:24;7.88;;;4.82;;
53650;SDS011;39552;45.776;15.892;2023-02-03T10:40:59;4.70;;;4.20;;
53650;SDS011;39552;45.776;15.892;2023-02-03T10:43:26;10.48;;;4.90;;
53650;SDS011;39552;45.776;15.892;2023-02-03T10:45:57;4.90;;;3.90;;
53650;SDS011;39552;45.776;15.892;2023-02-03T10:48:24;8.00;;;4.15;;
53650;SDS011;39552;45.776;15.892;2023-02-03T10:50:51;5.13;;;4.10;;
53650;SDS011;39552;45.776;15.892;2023-02-03T10:53:26;5.35;;;4.22;;
53650;SDS011;39552;45.776;15.892;2023-02-03T10:55:59;6.88;;;4.50;;
53650;SDS011;39552;45.776;15.892;2023-02-03T10:58:30;6.65;;;4.72;;
53650;SDS011;39552;45.776;15.892;2023-02-03T11:01:03;5.03;;;4.40;;
53650;SDS011;39552;45.776;15.892;2023-02-03T11:03:34;5.18;;;4.60;;
53650;SDS011;39552;45.776;15.892;2023-02-03T11:06:06;5.50;;;4.65;;
53650;SDS011;39552;45.776;15.892;2023-02-03T11:08:37;4.55;;;4.15;;
53650;SDS011;39552;45.776;15.892;2023-02-03T11:11:06;7.53;;;4.10;;
53650;SDS011;39552;45.776;15.892;2023-02-03T11:13:34;4.80;;;4.30;;
53650;SDS011;39552;45.776;15.892;2023-02-03T11:16:02;6.53;;;3.88;;
53650;SDS011;39552;45.776;15.892;2023-02-03T11:18:36;6.10;;;4.13;;
53650;SDS011;39552;45.776;15.892;2023-02-03T11:21:09;4.25;;;3.85;;
53650;SDS011;39552;45.776;15.892;2023-02-03T11:23:46;5.63;;;4.32;;
53650;SDS011;39552;45.776;15.892;2023-02-03T11:26:18;5.03;;;4.15;;
53650;SDS011;39552;45.776;15.892;2023-02-03T11:28:48;3.97;;;3.58;;
53650;SDS011;39552;45.776;15.892;2023-02-03T11:33:50;5.63;;;3.63;;
53650;SDS011;39552;45.776;15.892;2023-02-03T11:36:19;4.55;;;3.67;;
53650;SDS011;39552;45.776;15.892;2023-02-03T11:38:48;4.00;;;3.60;;
53650;SDS011;39552;45.776;15.892;2023-02-03T11:41:22;4.10;;;3.70;;
53650;SDS011;39552;45.776;15.892;2023-02-03T11:43:50;4.88;;;3.70;;
53650;SDS011;39552;45.776;15.892;2023-02-03T11:46:21;3.53;;;3.22;;
53650;SDS011;39552;45.776;15.892;2023-02-03T11:48:53;4.53;;;4.05;;
53650;SDS011;39552;45.776;15.892;2023-02-03T11:51:31;10.32;;;3.83;;
53650;SDS011;39552;45.776;15.892;2023-02-03T11:54:17;4.03;;;3.50;;
53650;SDS011;39552;45.776;15.892;2023-02-03T11:57:00;4.97;;;4.00;;
53650;SDS011;39552;45.776;15.892;2023-02-03T11:59:40;3.90;;;3.60;;
53650;SDS011;39552;45.776;15.892;2023-02-03T12:05:15;4.40;;;3.75;;
53650;SDS011;39552;45.776;15.892;2023-02-03T12:08:03;3.80;;;3.35;;
53650;SDS011;39552;45.776;15.892;2023-02-03T12:10:45;6.05;;;3.78;;
53650;SDS011;39552;45.776;15.892;2023-02-03T12:13:26;4.20;;;3.47;;
53650;SDS011;39552;45.776;15.892;2023-02-03T12:16:15;4.20;;;3.80;;
53650;SDS011;39552;45.776;15.892;2023-02-03T12:18:55;5.97;;;3.65;;
53650;SDS011;39552;45.776;15.892;2023-02-03T12:21:34;4.07;;;3.67;;
53650;SDS011;39552;45.776;15.892;2023-02-03T12:24:13;6.15;;;3.58;;
53650;SDS011;39552;45.776;15.892;2023-02-03T12:26:52;5.68;;;3.65;;
53650;SDS011;39552;45.776;15.892;2023-02-03T12:29:29;5.38;;;3.50;;
53650;SDS011;39552;45.776;15.892;2023-02-03T12:32:01;3.80;;;3.50;;
53650;SDS011;39552;45.776;15.892;2023-02-03T12:34:35;3.90;;;3.50;;
53650;SDS011;39552;45.776;15.892;2023-02-03T12:37:07;6.75;;;3.40;;
53650;SDS011;39552;45.776;15.892;2023-02-03T12:39:39;3.75;;;3.40;;
53650;SDS011;39552;45.776;15.892;2023-02-03T12:42:13;8.32;;;3.40;;
53650;SDS011;39552;45.776;15.892;2023-02-03T12:44:45;4.45;;;3.50;;
53650;SDS011;39552;45.776;15.892;2023-02-03T12:47:16;6.78;;;3.80;;
53650;SDS011;39552;45.776;15.892;2023-02-03T12:49:51;3.72;;;3.25;;
53650;SDS011;39552;45.776;15.892;2023-02-03T12:52:24;3.25;;;3.05;;
53650;SDS011;39552;45.776;15.892;2023-02-03T12:54:56;3.67;;;3.38;;
53650;SDS011;39552;45.776;15.892;2023-02-03T12:57:32;5.30;;;3.47;;
53650;SDS011;39552;45.776;15.892;2023-02-03T13:00:03;4.38;;;3.33;;
53650;SDS011;39552;45.776;15.892;2023-02-03T13:05:16;3.65;;;3.30;;
53650;SDS011;39552;45.776;15.892;2023-02-03T13:07:50;5.20;;;3.15;;
53650;SDS011;39552;45.776;15.892;2023-02-03T13:10:24;4.43;;;3.30;;
53650;SDS011;39552;45.776;15.892;2023-02-03T13:12:58;3.90;;;3.08;;
53650;SDS011;39552;45.776;15.892;2023-02-03T13:15:26;3.75;;;3.25;;
53650;SDS011;39552;45.776;15.892;2023-02-03T13:17:57;3.70;;;3.17;;
53650;SDS011;39552;45.776;15.892;2023-02-03T13:20:29;4.72;;;3.13;;
53650;SDS011;39552;45.776;15.892;2023-02-03T13:22:58;3.92;;;3.53;;
53650;SDS011;39552;45.776;15.892;2023-02-03T13:25:26;4.63;;;3.30;;
53650;SDS011;39552;45.776;15.892;2023-02-03T13:28:05;3.58;;;3.10;;
53650;SDS011;39552;45.776;15.892;2023-02-03T13:30:45;3.67;;;3.38;;
53650;SDS011;39552;45.776;15.892;2023-02-03T13:39:16;3.78;;;3.38;;
53650;SDS011;39552;45.776;15.892;2023-02-03T13:41:52;5.25;;;3.70;;
53650;SDS011;39552;45.776;15.892;2023-02-03T13:44:23;6.60;;;3.60;;
53650;SDS011;39552;45.776;15.892;2023-02-03T13:46:53;16.33;;;3.83;;
53650;SDS011;39552;45.776;15.892;2023-02-03T13:49:24;4.57;;;3.75;;
53650;SDS011;39552;45.776;15.892;2023-02-03T13:51:55;5.32;;;4.10;;
53650;SDS011;39552;45.776;15.892;2023-02-03T13:54:25;4.90;;;3.22;;
53650;SDS011;39552;45.776;15.892;2023-02-03T13:56:56;3.88;;;3.42;;
53650;SDS011;39552;45.776;15.892;2023-02-03T13:59:40;4.07;;;3.63;;
53650;SDS011;39552;45.776;15.892;2023-02-03T14:20:35;4.53;;;3.92;;
53650;SDS011;39552;45.776;15.892;2023-02-03T14:23:21;5.88;;;4.10;;
53650;SDS011;39552;45.776;15.892;2023-02-03T14:25:58;10.07;;;4.57;;
53650;SDS011;39552;45.776;15.892;2023-02-03T14:28:28;9.25;;;4.53;;
53650;SDS011;39552;45.776;15.892;2023-02-03T14:31:05;11.13;;;4.53;;
53650;SDS011;39552;45.776;15.892;2023-02-03T14:36:45;8.05;;;4.70;;
53650;SDS011;39552;45.776;15.892;2023-02-03T14:42:20;11.18;;;4.90;;
53650;SDS011;39552;45.776;15.892;2023-02-03T14:45:15;9.13;;;5.55;;
53650;SDS011;39552;45.776;15.892;2023-02-03T14:47:59;12.18;;;5.90;;
53650;SDS011;39552;45.776;15.892;2023-02-03T14:50:42;14.80;;;5.88;;
53650;SDS011;39552;45.776;15.892;2023-02-03T14:53:25;8.07;;;6.32;;
53650;SDS011;39552;45.776;15.892;2023-02-03T14:56:12;10.18;;;6.10;;
53650;SDS011;39552;45.776;15.892;2023-02-03T14:58:49;7.60;;;5.70;;
53650;SDS011;39552;45.776;15.892;2023-02-03T15:01:23;10.63;;;6.32;;
53650;SDS011;39552;45.776;15.892;2023-02-03T15:06:48;11.48;;;7.20;;
53650;SDS011;39552;45.776;15.892;2023-02-03T15:09:19;14.13;;;7.43;;
53650;SDS011;39552;45.776;15.892;2023-02-03T15:11:51;12.15;;;7.03;;
53650;SDS011;39552;45.776;15.892;2023-02-03T15:14:20;16.23;;;8.15;;
53650;SDS011;39552;45.776;15.892;2023-02-03T15:16:51;12.15;;;8.50;;
53650;SDS011;39552;45.776;15.892;2023-02-03T15:19:22;14.77;;;9.55;;
53650;SDS011;39552;45.776;15.892;2023-02-03T15:21:51;15.98;;;10.10;;
53650;SDS011;39552;45.776;15.892;2023-02-03T15:24:19;13.77;;;8.45;;
53650;SDS011;39552;45.776;15.892;2023-02-03T15:26:47;13.13;;;7.55;;
53650;SDS011;39552;45.776;15.892;2023-02-03T15:29:20;11.77;;;6.85;;
53650;SDS011;39552;45.776;15.892;2023-02-03T15:31:49;13.70;;;6.65;;
53650;SDS011;39552;45.776;15.892;2023-02-03T15:34:25;9.80;;;6.13;;
53650;SDS011;39552;45.776;15.892;2023-02-03T15:36:55;10.85;;;6.28;;
53650;SDS011;39552;45.776;15.892;2023-02-03T15:39:30;13.60;;;7.38;;
53650;SDS011;39552;45.776;15.892;2023-02-03T15:44:41;13.25;;;8.23;;
53650;SDS011;39552;45.776;15.892;2023-02-03T15:47:18;14.05;;;9.07;;